sensor_id;sensor_type;location;lat;lon;timestamp;pressure;altitude;pressure_sealevel;temperature;humidity
54417;BME280;40326;51.220;7.250;2022-09-09T00:02:28;97781.81;;;15.43;100.00
54417;BME280;40326;51.220;7.250;2022-09-09T00:04:34;97789.13;;;15.38;100.00
54417;BME280;40326;51.220;7.250;2022-09-09T00:09:45;97791.91;;;15.35;100.00
54417;BME280;40326;51.220;7.250;2022-09-09T00:15:07;97793.78;;;15.44;100.00
54417;BME280;40326;51.220;7.250;2022-09-09T00:17:43;97789.44;;;15.45;100.00
54417;BME280;40326;51.220;7.250;2022-09-09T00:20:21;97786.41;;;15.40;100.00
54417;BME280;40326;51.220;7.250;2022-09-09T00:23:19;97786.53;;;15.38;100.00
54417;BME280;40326;51.220;7.250;2022-09-09T00:28:20;97775.09;;;15.20;100.00
54417;BME280;40326;51.220;7.250;2022-09-09T00:30:47;97777.56;;;14.99;100.00
54417;BME280;40326;51.220;7.250;2022-09-09T00:33:15;97782.25;;;14.83;100.00
54417;BME280;40326;51.220;7.250;2022-09-09T00:35:45;97788.97;;;14.74;100.00
54417;BME280;40326;51.220;7.250;2022-09-09T00:38:16;97784.97;;;14.59;100.00
54417;BME280;40326;51.220;7.250;2022-09-09T00:40:50;97782.16;;;14.51;100.00
54417;BME280;40326;51.220;7.250;2022-09-09T00:43:30;97787.53;;;14.47;100.00
54417;BME280;40326;51.220;7.250;2022-09-09T00:49:03;97790.28;;;14.33;100.00
54417;BME280;40326;51.220;7.250;2022-09-09T00:57:25;97793.53;;;14.24;100.00
54417;BME280;40326;51.220;7.250;2022-09-09T00:59:59;97800.81;;;14.30;100.00
54417;BME280;40326;51.220;7.250;2022-09-09T01:02:39;97797.31;;;14.31;100.00
54417;BME280;40326;51.220;7.250;2022-09-09T01:05:23;97796.25;;;14.34;100.00
54417;BME280;40326;51.220;7.250;2022-09-09T01:07:52;97803.88;;;14.35;100.00
54417;BME280;40326;51.220;7.250;2022-09-09T01:10:29;97800.16;;;14.39;100.00
54417;BME280;40326;51.220;7.250;2022-09-09T01:12:58;97799.69;;;14.45;100.00
54417;BME280;40326;51.220;7.250;2022-09-09T01:15:30;97797.84;;;14.47;100.00
54417;BME280;40326;51.220;7.250;2022-09-09T01:18:06;97786.94;;;14.55;100.00
54417;BME280;40326;51.220;7.250;2022-09-09T01:21:27;97787.41;;;14.60;100.00
54417;BME280;40326;51.220;7.250;2022-09-09T01:26:41;97776.66;;;14.66;100.00
54417;BME280;40326;51.220;7.250;2022-09-09T01:29:10;97774.31;;;14.63;100.00
54417;BME280;40326;51.220;7.250;2022-09-09T01:31:39;97769.50;;;14.70;100.00
54417;BME280;40326;51.220;7.250;2022-09-09T01:34:14;97768.13;;;14.66;100.00
54417;BME280;40326;51.220;7.250;2022-09-09T01:37:07;97775.72;;;14.67;100.00
54417;BME280;40326;51.220;7.250;2022-09-09T01:39:35;97773.97;;;14.57;100.00
54417;BME280;40326;51.220;7.250;2022-09-09T01:42:01;97774.44;;;14.51;100.00
54417;BME280;40326;51.220;7.250;2022-09-09T01:44:27;97768.78;;;14.45;100.00
54417;BME280;40326;51.220;7.250;2022-09-09T01:46:54;97774.34;;;14.28;100.00
54417;BME280;40326;51.220;7.250;2022-09-09T01:49:22;97776.03;;;14.29;100.00
54417;BME280;40326;51.220;7.250;2022-09-09T01:51:53;97780.22;;;14.30;100.00
54417;BME280;40326;51.220;7.250;2022-09-09T01:54:24;97785.03;;;14.35;100.00
54417;BME280;40326;51.220;7.250;2022-09-09T02:04:43;97769.94;;;14.30;100.00
54417;BME280;40326;51.220;7.250;2022-09-09T02:07:28;97765.94;;;14.26;100.00
54417;BME280;40326;51.220;7.250;2022-09-09T02:10:02;97766.28;;;14.22;100.00
54417;BME280;40326;51.220;7.250;2022-09-09T02:12:30;97768.00;;;14.10;100.00
54417;BME280;40326;51.220;7.250;2022-09-09T02:15:02;97769.66;;;14.11;100.00
54417;BME280;40326;51.220;7.250;2022-09-09T02:17:31;97771.63;;;14.07;100.00
54417;BME280;40326;51.220;7.250;2022-09-09T02:20:04;97780.41;;;14.05;100.00
54417;BME280;40326;51.220;7.250;2022-09-09T02:22:31;97785.66;;;14.03;100.00
54417;BME280;40326;51.220;7.250;2022-09-09T02:25:00;97774.63;;;14.01;100.00
54417;BME280;40326;51.220;7.250;2022-09-09T02:27:25;97782.34;;;14.01;100.00
54417;BME280;40326;51.220;7.250;2022-09-09T02:29:52;97791.16;;;14.10;100.00
54417;BME280;40326;51.220;7.250;2022-09-09T02:32:22;97786.00;;;14.10;100.00
54417;BME280;40326;51.220;7.250;2022-09-09T02:35:01;97788.38;;;14.13;100.00
54417;BME280;40326;51.220;7.250;2022-09-09T02:37:35;97787.22;;;14.17;100.00
54417;BME280;40326;51.220;7.250;2022-09-09T02:40:04;97785.00;;;14.24;100.00
54417;BME280;40326;51.220;7.250;2022-09-09T02:42:30;97776.78;;;14.18;100.00
54417;BME280;40326;51.220;7.250;2022-09-09T02:44:55;97777.75;;;14.29;100.00
54417;BME280;40326;51.220;7.250;2022-09-09T02:47:33;97773.44;;;14.29;100.00
54417;BME280;40326;51.220;7.250;2022-09-09T02:55:41;97769.41;;;14.49;100.00
54417;BME280;40326;51.220;7.250;2022-09-09T02:58:12;97770.78;;;14.53;100.00
54417;BME280;40326;51.220;7.250;2022-09-09T03:00:43;97766.94;;;14.47;100.00
54417;BME280;40326;51.220;7.250;2022-09-09T03:03:09;97765.06;;;14.50;100.00
54417;BME280;40326;51.220;7.250;2022-09-09T03:05:35;97767.34;;;14.41;100.00
54417;BME280;40326;51.220;7.250;2022-09-09T03:08:01;97767.34;;;14.41;100.00
54417;BME280;40326;51.220;7.250;2022-09-09T03:10:27;97763.84;;;14.31;100.00
54417;BME280;40326;51.220;7.250;2022-09-09T03:12:52;97765.47;;;14.21;100.00
54417;BME280;40326;51.220;7.250;2022-09-09T03:15:18;97767.09;;;14.22;100.00
54417;BME280;40326;51.220;7.250;2022-09-09T03:17:43;97775.75;;;14.21;100.00
54417;BME280;40326;51.220;7.250;2022-09-09T03:20:09;97772.00;;;14.25;100.00
54417;BME280;40326;51.220;7.250;2022-09-09T03:22:34;97777.41;;;14.22;100.00
54417;BME280;40326;51.220;7.250;2022-09-09T03:25:01;97773.44;;;14.29;100.00
54417;BME280;40326;51.220;7.250;2022-09-09T03:27:28;97776.72;;;14.31;100.00
54417;BME280;40326;51.220;7.250;2022-09-09T03:29:53;97761.50;;;14.39;100.00
54417;BME280;40326;51.220;7.250;2022-09-09T03:32:19;97754.25;;;14.33;100.00
54417;BME280;40326;51.220;7.250;2022-09-09T03:34:47;97755.06;;;14.34;100.00
54417;BME280;40326;51.220;7.250;2022-09-09T03:37:15;97759.38;;;14.33;100.00
54417;BME280;40326;51.220;7.250;2022-09-09T03:39:40;97750.97;;;14.31;100.00
54417;BME280;40326;51.220;7.250;2022-09-09T03:42:06;97761.03;;;14.34;100.00
54417;BME280;40326;51.220;7.250;2022-09-09T03:44:32;97756.13;;;14.31;100.00
54417;BME280;40326;51.220;7.250;2022-09-09T03:46:57;97758.00;;;14.29;100.00
54417;BME280;40326;51.220;7.250;2022-09-09T03:49:25;97757.00;;;14.19;100.00
54417;BME280;40326;51.220;7.250;2022-09-09T03:51:52;97767.78;;;14.13;100.00
54417;BME280;40326;51.220;7.250;2022-09-09T03:54:17;97765.91;;;14.15;100.00
54417;BME280;40326;51.220;7.250;2022-09-09T03:56:42;97770.63;;;14.21;100.00
54417;BME280;40326;51.220;7.250;2022-09-09T03:59:08;97771.31;;;14.12;100.00
54417;BME280;40326;51.220;7.250;2022-09-09T04:01:34;97763.56;;;14.12;100.00
54417;BME280;40326;51.220;7.250;2022-09-09T04:03:59;97769.16;;;14.06;100.00
54417;BME280;40326;51.220;7.250;2022-09-09T04:06:25;97778.91;;;14.13;100.00
54417;BME280;40326;51.220;7.250;2022-09-09T04:08:51;97768.50;;;14.15;100.00
54417;BME280;40326;51.220;7.250;2022-09-09T04:11:17;97772.31;;;14.09;100.00
54417;BME280;40326;51.220;7.250;2022-09-09T04:13:42;97771.63;;;14.18;100.00
54417;BME280;40326;51.220;7.250;2022-09-09T04:16:10;97778.09;;;14.24;100.00
54417;BME280;40326;51.220;7.250;2022-09-09T04:18:36;97769.44;;;14.25;100.00
54417;BME280;40326;51.220;7.250;2022-09-09T04:21:02;97776.22;;;14.37;100.00
54417;BME280;40326;51.220;7.250;2022-09-09T04:23:29;97762.78;;;14.34;100.00
54417;BME280;40326;51.220;7.250;2022-09-09T04:25:57;97767.00;;;14.35;100.00
54417;BME280;40326;51.220;7.250;2022-09-09T04:28:25;97765.72;;;14.40;100.00
54417;BME280;40326;51.220;7.250;2022-09-09T04:30:51;97762.44;;;14.38;100.00
54417;BME280;40326;51.220;7.250;2022-09-09T04:33:18;97764.53;;;14.44;100.00
54417;BME280;40326;51.220;7.250;2022-09-09T04:35:44;97764.38;;;14.47;100.00
54417;BME280;40326;51.220;7.250;2022-09-09T04:38:11;97755.69;;;14.48;100.00
54417;BME280;40326;51.220;7.250;2022-09-09T04:40:36;97749.00;;;14.46;100.00
54417;BME280;40326;51.220;7.250;2022-09-09T04:43:03;97751.94;;;14.53;100.00
54417;BME280;40326;51.220;7.250;2022-09-09T04:45:30;97751.25;;;14.51;100.00
54417;BME280;40326;51.220;7.250;2022-09-09T04:47:56;97752.53;;;14.56;100.00
54417;BME280;40326;51.220;7.250;2022-09-09T04:50:21;97757.56;;;14.58;100.00
54417;BME280;40326;51.220;7.250;2022-09-09T04:52:47;97752.19;;;14.61;100.00
54417;BME280;40326;51.220;7.250;2022-09-09T04:55:12;97748.44;;;14.65;100.00
54417;BME280;40326;51.220;7.250;2022-09-09T04:57:38;97749.34;;;14.64;100.00
54417;BME280;40326;51.220;7.250;2022-09-09T05:00:05;97750.66;;;14.69;100.00
54417;BME280;40326;51.220;7.250;2022-09-09T05:02:31;97744.94;;;14.66;100.00
54417;BME280;40326;51.220;7.250;2022-09-09T05:04:57;97743.28;;;14.54;100.00
54417;BME280;40326;51.220;7.250;2022-09-09T05:07:23;97749.84;;;14.58;100.00
54417;BME280;40326;51.220;7.250;2022-09-09T05:09:48;97749.25;;;14.65;100.00
54417;BME280;40326;51.220;7.250;2022-09-09T05:12:15;97743.03;;;14.68;100.00
54417;BME280;40326;51.220;7.250;2022-09-09T05:14:42;97746.78;;;14.64;100.00
54417;BME280;40326;51.220;7.250;2022-09-09T05:17:07;97752.41;;;14.69;100.00
54417;BME280;40326;51.220;7.250;2022-09-09T05:19:33;97745.03;;;14.75;100.00
54417;BME280;40326;51.220;7.250;2022-09-09T05:21:58;97744.22;;;14.75;100.00
54417;BME280;40326;51.220;7.250;2022-09-09T05:24:23;97753.09;;;14.71;100.00
54417;BME280;40326;51.220;7.250;2022-09-09T05:26:49;97744.31;;;14.73;100.00
54417;BME280;40326;51.220;7.250;2022-09-09T05:29:14;97744.91;;;14.88;100.00
54417;BME280;40326;51.220;7.250;2022-09-09T05:31:39;97742.69;;;14.84;100.00
54417;BME280;40326;51.220;7.250;2022-09-09T05:34:05;97748.31;;;14.77;100.00
54417;BME280;40326;51.220;7.250;2022-09-09T05:36:33;97740.69;;;14.76;100.00
54417;BME280;40326;51.220;7.250;2022-09-09T05:38:58;97738.56;;;14.81;100.00
54417;BME280;40326;51.220;7.250;2022-09-09T05:41:23;97738.00;;;14.77;100.00
54417;BME280;40326;51.220;7.250;2022-09-09T05:43:49;97742.91;;;14.81;100.00
54417;BME280;40326;51.220;7.250;2022-09-09T05:46:19;97745.97;;;14.86;100.00
54417;BME280;40326;51.220;7.250;2022-09-09T05:48:46;97749.59;;;14.83;100.00
54417;BME280;40326;51.220;7.250;2022-09-09T05:51:14;97752.63;;;14.88;100.00
54417;BME280;40326;51.220;7.250;2022-09-09T05:53:41;97751.59;;;14.80;100.00
54417;BME280;40326;51.220;7.250;2022-09-09T05:56:12;97762.94;;;14.77;100.00
54417;BME280;40326;51.220;7.250;2022-09-09T05:58:41;97769.03;;;14.76;100.00
54417;BME280;40326;51.220;7.250;2022-09-09T06:01:11;97769.50;;;14.70;100.00
54417;BME280;40326;51.220;7.250;2022-09-09T06:03:40;97773.28;;;14.66;100.00
54417;BME280;40326;51.220;7.250;2022-09-09T06:06:10;97779.00;;;14.69;100.00
54417;BME280;40326;51.220;7.250;2022-09-09T06:08:38;97776.53;;;14.57;100.00
54417;BME280;40326;51.220;7.250;2022-09-09T06:11:13;97781.56;;;14.58;100.00
54417;BME280;40326;51.220;7.250;2022-09-09T06:13:39;97782.28;;;14.60;100.00
54417;BME280;40326;51.220;7.250;2022-09-09T06:16:15;97791.50;;;14.52;100.00
54417;BME280;40326;51.220;7.250;2022-09-09T06:18:42;97803.00;;;14.59;100.00
54417;BME280;40326;51.220;7.250;2022-09-09T06:21:13;97798.53;;;14.50;100.00
54417;BME280;40326;51.220;7.250;2022-09-09T06:23:39;97804.88;;;14.57;100.00
54417;BME280;40326;51.220;7.250;2022-09-09T06:26:17;97800.88;;;14.53;100.00
54417;BME280;40326;51.220;7.250;2022-09-09T06:31:21;97805.69;;;14.57;100.00
54417;BME280;40326;51.220;7.250;2022-09-09T06:36:26;97794.34;;;14.60;100.00
54417;BME280;40326;51.220;7.250;2022-09-09T06:38:52;97791.41;;;14.98;100.00
54417;BME280;40326;51.220;7.250;2022-09-09T06:41:21;97768.56;;;14.93;100.00
54417;BME280;40326;51.220;7.250;2022-09-09T06:43:47;97771.56;;;15.10;100.00
54417;BME280;40326;51.220;7.250;2022-09-09T06:46:16;97766.66;;;15.07;100.00
54417;BME280;40326;51.220;7.250;2022-09-09T06:48:43;97759.75;;;15.07;100.00
54417;BME280;40326;51.220;7.250;2022-09-09T06:53:40;97750.50;;;15.04;100.00
54417;BME280;40326;51.220;7.250;2022-09-09T06:56:19;97758.00;;;15.19;100.00
54417;BME280;40326;51.220;7.250;2022-09-09T06:58:46;97758.09;;;15.17;100.00
54417;BME280;40326;51.220;7.250;2022-09-09T07:01:13;97752.28;;;15.36;100.00
54417;BME280;40326;51.220;7.250;2022-09-09T07:03:40;97748.25;;;15.66;100.00
54417;BME280;40326;51.220;7.250;2022-09-09T07:06:06;97754.66;;;15.39;100.00
54417;BME280;40326;51.220;7.250;2022-09-09T07:08:35;97751.97;;;15.29;100.00
54417;BME280;40326;51.220;7.250;2022-09-09T07:11:04;97757.09;;;15.41;100.00
54417;BME280;40326;51.220;7.250;2022-09-09T07:13:30;97752.72;;;15.64;100.00
54417;BME280;40326;51.220;7.250;2022-09-09T07:16:03;97757.69;;;15.76;100.00
54417;BME280;40326;51.220;7.250;2022-09-09T07:18:29;97747.13;;;15.79;100.00
54417;BME280;40326;51.220;7.250;2022-09-09T07:20:57;97751.72;;;15.76;100.00
54417;BME280;40326;51.220;7.250;2022-09-09T07:23:23;97747.38;;;15.76;100.00
54417;BME280;40326;51.220;7.250;2022-09-09T07:25:49;97749.13;;;15.97;100.00
54417;BME280;40326;51.220;7.250;2022-09-09T07:28:15;97752.03;;;16.03;100.00
54417;BME280;40326;51.220;7.250;2022-09-09T07:30:41;97745.38;;;16.52;100.00
54417;BME280;40326;51.220;7.250;2022-09-09T07:33:07;97739.56;;;16.90;100.00
54417;BME280;40326;51.220;7.250;2022-09-09T07:35:34;97719.75;;;17.10;100.00
54417;BME280;40326;51.220;7.250;2022-09-09T07:38:04;97716.06;;;17.42;100.00
54417;BME280;40326;51.220;7.250;2022-09-09T07:40:33;97707.22;;;17.25;100.00
54417;BME280;40326;51.220;7.250;2022-09-09T07:42:59;97702.47;;;17.78;100.00
54417;BME280;40326;51.220;7.250;2022-09-09T07:45:25;97706.13;;;17.66;100.00
54417;BME280;40326;51.220;7.250;2022-09-09T07:47:53;97709.53;;;17.09;100.00
54417;BME280;40326;51.220;7.250;2022-09-09T07:50:18;97714.25;;;16.94;100.00
54417;BME280;40326;51.220;7.250;2022-09-09T07:52:44;97724.44;;;16.55;100.00
54417;BME280;40326;51.220;7.250;2022-09-09T07:55:09;97722.16;;;16.92;100.00
54417;BME280;40326;51.220;7.250;2022-09-09T07:57:35;97721.06;;;17.05;100.00
54417;BME280;40326;51.220;7.250;2022-09-09T08:00:03;97719.31;;;17.15;100.00
54417;BME280;40326;51.220;7.250;2022-09-09T08:02:28;97713.22;;;17.25;100.00
54417;BME280;40326;51.220;7.250;2022-09-09T08:04:54;97710.91;;;17.51;100.00
54417;BME280;40326;51.220;7.250;2022-09-09T08:07:20;97699.19;;;17.57;100.00
54417;BME280;40326;51.220;7.250;2022-09-09T08:09:46;97702.06;;;17.54;100.00
54417;BME280;40326;51.220;7.250;2022-09-09T08:12:12;97709.28;;;17.89;100.00
54417;BME280;40326;51.220;7.250;2022-09-09T08:14:38;97710.75;;;17.34;100.00
54417;BME280;40326;51.220;7.250;2022-09-09T08:17:04;97707.25;;;17.64;100.00
54417;BME280;40326;51.220;7.250;2022-09-09T08:19:29;97694.34;;;18.20;100.00
54417;BME280;40326;51.220;7.250;2022-09-09T08:21:55;97682.97;;;18.68;100.00
54417;BME280;40326;51.220;7.250;2022-09-09T08:24:20;97678.34;;;18.71;100.00
54417;BME280;40326;51.220;7.250;2022-09-09T08:26:47;97671.66;;;18.32;100.00
54417;BME280;40326;51.220;7.250;2022-09-09T08:29:17;97680.25;;;17.85;100.00
54417;BME280;40326;51.220;7.250;2022-09-09T08:34:10;97690.06;;;18.38;100.00
54417;BME280;40326;51.220;7.250;2022-09-09T08:36:41;97691.28;;;18.44;100.00
54417;BME280;40326;51.220;7.250;2022-09-09T08:39:09;97674.78;;;18.73;100.00
54417;BME280;40326;51.220;7.250;2022-09-09T08:41:48;97677.97;;;18.20;100.00
54417;BME280;40326;51.220;7.250;2022-09-09T08:47:07;97681.84;;;18.80;100.00
54417;BME280;40326;51.220;7.250;2022-09-09T08:52:28;97673.47;;;18.86;100.00
54417;BME280;40326;51.220;7.250;2022-09-09T08:55:05;97662.50;;;18.92;100.00
54417;BME280;40326;51.220;7.250;2022-09-09T08:57:38;97671.97;;;18.84;100.00
54417;BME280;40326;51.220;7.250;2022-09-09T09:00:04;97677.31;;;18.55;100.00
54417;BME280;40326;51.220;7.250;2022-09-09T09:02:48;97677.50;;;18.43;100.00
54417;BME280;40326;51.220;7.250;2022-09-09T09:05:24;97677.53;;;18.71;100.00
54417;BME280;40326;51.220;7.250;2022-09-09T09:08:26;97682.19;;;18.58;100.00
54417;BME280;40326;51.220;7.250;2022-09-09T09:10:57;97687.56;;;18.47;100.00
54417;BME280;40326;51.220;7.250;2022-09-09T09:16:14;97687.06;;;17.77;100.00
54417;BME280;40326;51.220;7.250;2022-09-09T09:18:42;97692.25;;;17.67;100.00
54417;BME280;40326;51.220;7.250;2022-09-09T09:23:57;97689.78;;;17.66;100.00
54417;BME280;40326;51.220;7.250;2022-09-09T09:26:26;97687.38;;;17.45;100.00
54417;BME280;40326;51.220;7.250;2022-09-09T09:28:55;97690.09;;;17.72;100.00
54417;BME280;40326;51.220;7.250;2022-09-09T09:31:24;97671.69;;;17.75;100.00
54417;BME280;40326;51.220;7.250;2022-09-09T09:33:55;97669.31;;;18.01;100.00
54417;BME280;40326;51.220;7.250;2022-09-09T09:36:25;97668.31;;;18.49;100.00
54417;BME280;40326;51.220;7.250;2022-09-09T09:38:59;97667.13;;;18.43;100.00
54417;BME280;40326;51.220;7.250;2022-09-09T09:41:43;97663.84;;;18.41;100.00
54417;BME280;40326;51.220;7.250;2022-09-09T09:44:31;97669.09;;;18.87;100.00
54417;BME280;40326;51.220;7.250;2022-09-09T09:47:17;97665.63;;;19.32;100.00
54417;BME280;40326;51.220;7.250;2022-09-09T09:49:56;97655.13;;;19.33;100.00
54417;BME280;40326;51.220;7.250;2022-09-09T09:52:26;97663.56;;;20.23;100.00
54417;BME280;40326;51.220;7.250;2022-09-09T09:54:53;97654.13;;;21.14;100.00
54417;BME280;40326;51.220;7.250;2022-09-09T09:57:26;97656.09;;;20.28;100.00
54417;BME280;40326;51.220;7.250;2022-09-09T10:00:19;97653.28;;;20.13;100.00
54417;BME280;40326;51.220;7.250;2022-09-09T10:02:46;97650.66;;;19.61;100.00
54417;BME280;40326;51.220;7.250;2022-09-09T10:05:17;97656.13;;;19.40;100.00
54417;BME280;40326;51.220;7.250;2022-09-09T10:07:44;97650.94;;;19.22;100.00
54417;BME280;40326;51.220;7.250;2022-09-09T10:10:15;97653.84;;;19.02;100.00
54417;BME280;40326;51.220;7.250;2022-09-09T10:16:20;97659.34;;;18.43;100.00
54417;BME280;40326;51.220;7.250;2022-09-09T10:38:14;97659.19;;;19.18;100.00
54417;BME280;40326;51.220;7.250;2022-09-09T10:46:23;97646.19;;;19.97;100.00
54417;BME280;40326;51.220;7.250;2022-09-09T10:57:27;97627.47;;;20.54;100.00
54417;BME280;40326;51.220;7.250;2022-09-09T10:59:58;97621.59;;;21.27;100.00
54417;BME280;40326;51.220;7.250;2022-09-09T11:02:29;97611.66;;;21.22;100.00
54417;BME280;40326;51.220;7.250;2022-09-09T11:05:32;97623.56;;;21.49;100.00
54417;BME280;40326;51.220;7.250;2022-09-09T11:07:59;97608.41;;;21.28;100.00
54417;BME280;40326;51.220;7.250;2022-09-09T11:10:50;97613.09;;;21.00;100.00
54417;BME280;40326;51.220;7.250;2022-09-09T11:19:17;97606.94;;;21.66;100.00
54417;BME280;40326;51.220;7.250;2022-09-09T11:21:46;97613.78;;;21.67;100.00
54417;BME280;40326;51.220;7.250;2022-09-09T11:25:10;97610.41;;;20.51;100.00
54417;BME280;40326;51.220;7.250;2022-09-09T11:27:17;97617.41;;;20.25;100.00
54417;BME280;40326;51.220;7.250;2022-09-09T11:41:02;97593.09;;;22.29;100.00
54417;BME280;40326;51.220;7.250;2022-09-09T11:43:37;97599.50;;;21.31;100.00
54417;BME280;40326;51.220;7.250;2022-09-09T11:46:04;97584.25;;;20.19;100.00
54417;BME280;40326;51.220;7.250;2022-09-09T11:48:37;97589.16;;;20.30;100.00
54417;BME280;40326;51.220;7.250;2022-09-09T11:51:09;97584.28;;;20.27;100.00
54417;BME280;40326;51.220;7.250;2022-09-09T11:53:56;97593.47;;;20.05;100.00
54417;BME280;40326;51.220;7.250;2022-09-09T12:01:38;97595.22;;;19.52;100.00
54417;BME280;40326;51.220;7.250;2022-09-09T12:04:17;97605.00;;;19.15;100.00
54417;BME280;40326;51.220;7.250;2022-09-09T12:06:53;97605.00;;;19.33;100.00
54417;BME280;40326;51.220;7.250;2022-09-09T12:11:52;97605.28;;;19.29;100.00
54417;BME280;40326;51.220;7.250;2022-09-09T12:14:23;97597.69;;;19.54;100.00
54417;BME280;40326;51.220;7.250;2022-09-09T12:19:37;97610.03;;;20.12;100.00
54417;BME280;40326;51.220;7.250;2022-09-09T12:24:49;97604.72;;;20.22;100.00
54417;BME280;40326;51.220;7.250;2022-09-09T12:27:22;97608.59;;;20.18;100.00
54417;BME280;40326;51.220;7.250;2022-09-09T12:30:09;97620.72;;;19.75;100.00
54417;BME280;40326;51.220;7.250;2022-09-09T12:32:36;97612.22;;;19.91;100.00
54417;BME280;40326;51.220;7.250;2022-09-09T12:35:04;97601.06;;;19.98;100.00
54417;BME280;40326;51.220;7.250;2022-09-09T12:40:27;97602.06;;;20.05;100.00
54417;BME280;40326;51.220;7.250;2022-09-09T12:42:53;97601.88;;;19.73;100.00
54417;BME280;40326;51.220;7.250;2022-09-09T12:45:25;97592.72;;;19.61;100.00
54417;BME280;40326;51.220;7.250;2022-09-09T12:47:56;97600.34;;;19.62;100.00
54417;BME280;40326;51.220;7.250;2022-09-09T12:50:25;97610.50;;;19.55;100.00
54417;BME280;40326;51.220;7.250;2022-09-09T12:52:53;97604.13;;;19.24;100.00
54417;BME280;40326;51.220;7.250;2022-09-09T12:55:30;97606.41;;;19.27;100.00
54417;BME280;40326;51.220;7.250;2022-09-09T12:57:59;97598.13;;;19.06;100.00
54417;BME280;40326;51.220;7.250;2022-09-09T13:00:26;97596.63;;;18.85;100.00
54417;BME280;40326;51.220;7.250;2022-09-09T13:05:36;97600.69;;;18.70;100.00
54417;BME280;40326;51.220;7.250;2022-09-09T13:08:04;97599.91;;;18.32;100.00
54417;BME280;40326;51.220;7.250;2022-09-09T13:10:35;97604.41;;;18.03;100.00
54417;BME280;40326;51.220;7.250;2022-09-09T13:13:04;97609.03;;;17.62;100.00
54417;BME280;40326;51.220;7.250;2022-09-09T13:15:30;97629.84;;;17.51;100.00
54417;BME280;40326;51.220;7.250;2022-09-09T13:17:57;97623.03;;;17.89;100.00
54417;BME280;40326;51.220;7.250;2022-09-09T13:20:26;97629.22;;;18.05;100.00
54417;BME280;40326;51.220;7.250;2022-09-09T13:22:53;97624.13;;;17.67;100.00
54417;BME280;40326;51.220;7.250;2022-09-09T13:25:25;97638.31;;;17.34;100.00
54417;BME280;40326;51.220;7.250;2022-09-09T13:28:02;97640.38;;;17.30;100.00
54417;BME280;40326;51.220;7.250;2022-09-09T13:30:34;97667.72;;;17.03;100.00
54417;BME280;40326;51.220;7.250;2022-09-09T13:33:03;97705.75;;;16.11;100.00
54417;BME280;40326;51.220;7.250;2022-09-09T13:35:28;97735.16;;;15.99;100.00
54417;BME280;40326;51.220;7.250;2022-09-09T13:37:54;97746.13;;;15.92;100.00
54417;BME280;40326;51.220;7.250;2022-09-09T13:40:22;97748.06;;;15.99;100.00
54417;BME280;40326;51.220;7.250;2022-09-09T13:42:52;97745.41;;;16.31;100.00
54417;BME280;40326;51.220;7.250;2022-09-09T13:45:22;97741.75;;;16.95;100.00
54417;BME280;40326;51.220;7.250;2022-09-09T13:47:49;97728.75;;;17.54;100.00
54417;BME280;40326;51.220;7.250;2022-09-09T13:50:28;97711.47;;;17.74;100.00
54417;BME280;40326;51.220;7.250;2022-09-09T13:52:56;97682.91;;;19.05;100.00
54417;BME280;40326;51.220;7.250;2022-09-09T14:06:04;97657.41;;;18.46;100.00
54417;BME280;40326;51.220;7.250;2022-09-09T14:08:57;97657.06;;;17.94;100.00
54417;BME280;40326;51.220;7.250;2022-09-09T14:15:21;97692.25;;;17.19;100.00
54417;BME280;40326;51.220;7.250;2022-09-09T14:22:06;97720.47;;;16.21;100.00
54417;BME280;40326;51.220;7.250;2022-09-09T14:25:20;97727.13;;;16.74;100.00
54417;BME280;40326;51.220;7.250;2022-09-09T14:27:48;97720.94;;;16.66;100.00
54417;BME280;40326;51.220;7.250;2022-09-09T14:30:37;97723.50;;;16.96;100.00
54417;BME280;40326;51.220;7.250;2022-09-09T14:33:03;97718.72;;;16.82;100.00
54417;BME280;40326;51.220;7.250;2022-09-09T14:35:28;97727.69;;;16.78;100.00
54417;BME280;40326;51.220;7.250;2022-09-09T14:37:53;97734.25;;;16.61;100.00
54417;BME280;40326;51.220;7.250;2022-09-09T14:40:21;97735.44;;;16.78;100.00
54417;BME280;40326;51.220;7.250;2022-09-09T14:42:46;97728.50;;;16.79;100.00
54417;BME280;40326;51.220;7.250;2022-09-09T14:45:12;97724.44;;;16.55;100.00
54417;BME280;40326;51.220;7.250;2022-09-09T14:47:37;97727.38;;;16.41;100.00
54417;BME280;40326;51.220;7.250;2022-09-09T14:50:04;97757.25;;;16.34;100.00
54417;BME280;40326;51.220;7.250;2022-09-09T14:52:30;97776.16;;;16.13;100.00
54417;BME280;40326;51.220;7.250;2022-09-09T14:54:55;97796.19;;;15.68;100.00
54417;BME280;40326;51.220;7.250;2022-09-09T14:57:20;97809.94;;;15.57;100.00
54417;BME280;40326;51.220;7.250;2022-09-09T14:59:46;97797.81;;;15.37;100.00
54417;BME280;40326;51.220;7.250;2022-09-09T15:02:11;97805.88;;;15.32;100.00
54417;BME280;40326;51.220;7.250;2022-09-09T15:04:38;97797.13;;;15.24;100.00
54417;BME280;40326;51.220;7.250;2022-09-09T15:07:03;97777.78;;;15.29;100.00
54417;BME280;40326;51.220;7.250;2022-09-09T15:09:28;97793.69;;;15.34;100.00
54417;BME280;40326;51.220;7.250;2022-09-09T15:11:54;97787.34;;;15.39;100.00
54417;BME280;40326;51.220;7.250;2022-09-09T15:14:20;97760.25;;;15.44;100.00
54417;BME280;40326;51.220;7.250;2022-09-09T15:16:45;97747.13;;;15.36;100.00
54417;BME280;40326;51.220;7.250;2022-09-09T15:19:11;97743.78;;;15.56;100.00
54417;BME280;40326;51.220;7.250;2022-09-09T15:21:37;97756.94;;;15.53;100.00
54417;BME280;40326;51.220;7.250;2022-09-09T15:24:04;97775.69;;;15.67;100.00
54417;BME280;40326;51.220;7.250;2022-09-09T15:26:29;97772.16;;;15.68;100.00
54417;BME280;40326;51.220;7.250;2022-09-09T15:31:31;97778.22;;;15.78;100.00
54417;BME280;40326;51.220;7.250;2022-09-09T15:33:58;97778.16;;;15.89;100.00